createdAt,value
2019-01-24T00:00:16.921Z,1.28
2019-01-24T00:02:42.937Z,1.26
2019-01-24T00:05:08.778Z,1.26
2019-01-24T00:07:34.671Z,1.16
2019-01-24T00:10:00.591Z,1.20
2019-01-24T00:12:26.460Z,1.09
2019-01-24T00:14:52.320Z,0.96
2019-01-24T00:17:18.221Z,1.03
2019-01-24T00:19:44.134Z,1.02
2019-01-24T00:22:10.004Z,0.93
2019-01-24T00:24:35.886Z,1.01
2019-01-24T00:27:01.835Z,1.01
2019-01-24T00:29:27.707Z,1.21
2019-01-24T00:31:53.619Z,1.20
2019-01-24T00:34:23.278Z,1.15
2019-01-24T00:36:47.252Z,1.14
2019-01-24T00:39:13.153Z,1.37
2019-01-24T00:41:39.040Z,1.35
2019-01-24T00:44:04.946Z,1.37
2019-01-24T00:46:30.831Z,1.26
2019-01-24T00:48:56.670Z,1.25
2019-01-24T00:51:22.580Z,1.16
2019-01-24T00:53:51.839Z,1.19
2019-01-24T00:56:17.690Z,1.20
2019-01-24T00:58:43.572Z,1.37
2019-01-24T01:01:09.594Z,1.43
2019-01-24T01:03:35.512Z,1.35
2019-01-24T01:06:01.369Z,1.23
2019-01-24T01:08:27.251Z,1.11
2019-01-24T01:10:53.134Z,1.27
2019-01-24T01:13:19.048Z,1.32
2019-01-24T01:15:45.048Z,1.28
2019-01-24T01:18:11.025Z,1.35
2019-01-24T01:20:36.917Z,1.20
2019-01-24T01:23:03.112Z,1.23
2019-01-24T01:25:28.991Z,1.26
2019-01-24T01:27:54.880Z,1.23
2019-01-24T01:30:22.449Z,1.34
2019-01-24T01:32:48.534Z,1.38
2019-01-24T01:35:14.710Z,1.40
2019-01-24T01:37:40.572Z,1.23
2019-01-24T01:40:09.545Z,1.04
2019-01-24T01:42:35.415Z,1.10
2019-01-24T01:45:01.496Z,1.11
2019-01-24T01:47:27.400Z,1.13
2019-01-24T01:49:53.278Z,1.12
2019-01-24T01:52:19.225Z,1.07
2019-01-24T01:54:45.178Z,1.01
2019-01-24T01:57:11.075Z,1.06
2019-01-24T01:59:37.014Z,1.20
2019-01-24T02:02:02.892Z,1.06
2019-01-24T02:04:28.877Z,0.83
2019-01-24T02:06:54.826Z,0.74
2019-01-24T02:09:20.726Z,0.76
2019-01-24T02:11:46.578Z,0.49
2019-01-24T02:14:12.457Z,0.61
2019-01-24T02:16:38.372Z,0.61
2019-01-24T02:19:04.316Z,0.53
2019-01-24T02:21:30.229Z,0.54
2019-01-24T02:23:56.104Z,0.63
2019-01-24T02:26:22.034Z,0.61
2019-01-24T02:28:47.918Z,0.67
2019-01-24T02:31:13.791Z,0.63
2019-01-24T02:33:39.745Z,0.53
2019-01-24T02:36:05.610Z,0.35
2019-01-24T02:38:31.533Z,0.48
2019-01-24T02:40:57.428Z,0.46
2019-01-24T02:43:23.304Z,0.43
2019-01-24T02:45:49.186Z,0.41
2019-01-24T02:48:15.111Z,0.38
2019-01-24T02:50:41.011Z,0.40
2019-01-24T02:53:06.885Z,0.41
2019-01-24T02:55:32.794Z,0.40
2019-01-24T02:57:58.839Z,0.31
2019-01-24T03:00:24.772Z,0.38
2019-01-24T03:02:50.801Z,0.34
2019-01-24T03:05:21.308Z,0.42
2019-01-24T03:07:47.535Z,0.32
2019-01-24T03:10:13.421Z,0.26
2019-01-24T03:12:39.308Z,0.07
2019-01-24T03:15:08.690Z,-0.07
2019-01-24T03:17:34.543Z,0.06
2019-01-24T03:20:00.520Z,-0.03
2019-01-24T03:22:26.390Z,-0.11
2019-01-24T03:24:52.241Z,-0.02
2019-01-24T03:27:18.141Z,0.08
2019-01-24T03:29:44.048Z,0.22
2019-01-24T03:32:09.999Z,0.43
2019-01-24T03:34:35.933Z,0.29
2019-01-24T03:37:01.867Z,0.25
2019-01-24T03:39:27.745Z,0.31
2019-01-24T03:41:53.638Z,0.31
2019-01-24T03:44:19.576Z,0.37
2019-01-24T03:46:45.510Z,0.29
2019-01-24T03:49:11.382Z,0.39
2019-01-24T03:51:37.271Z,0.40
2019-01-24T03:54:03.188Z,0.35
2019-01-24T03:56:29.050Z,0.37
2019-01-24T03:58:54.969Z,0.30
2019-01-24T04:01:20.894Z,0.37
2019-01-24T04:03:46.874Z,0.32
2019-01-24T04:06:12.798Z,0.28
2019-01-24T04:08:38.679Z,0.13
2019-01-24T04:11:04.568Z,0.33
2019-01-24T04:13:30.454Z,0.40
2019-01-24T04:15:56.329Z,0.38
2019-01-24T04:18:22.308Z,0.20
2019-01-24T04:20:48.167Z,0.11
2019-01-24T04:23:14.047Z,0.12
2019-01-24T04:25:39.993Z,0.12
2019-01-24T04:28:05.867Z,0.10
2019-01-24T04:30:31.753Z,0.12
2019-01-24T04:32:57.654Z,0.22
2019-01-24T04:35:23.518Z,0.29
2019-01-24T04:37:49.379Z,0.44
2019-01-24T04:40:16.843Z,0.76
2019-01-24T04:42:42.701Z,0.62
2019-01-24T04:45:10.363Z,0.56
2019-01-24T04:47:36.268Z,0.54
2019-01-24T04:50:04.782Z,0.63
2019-01-24T04:52:30.673Z,0.64
2019-01-24T04:54:56.550Z,0.49
2019-01-24T04:57:22.399Z,0.61
2019-01-24T04:59:48.399Z,0.75
2019-01-24T05:02:18.152Z,0.77
2019-01-24T05:04:44.042Z,0.68
2019-01-24T05:07:09.928Z,0.55
2019-01-24T05:09:35.774Z,0.56
2019-01-24T05:12:03.191Z,0.42
2019-01-24T05:14:29.048Z,0.43
2019-01-24T05:16:54.899Z,0.46
2019-01-24T05:19:20.795Z,0.45
2019-01-24T05:21:46.642Z,0.51
2019-01-24T05:24:12.537Z,0.50
2019-01-24T05:26:38.405Z,0.55
2019-01-24T05:29:04.274Z,0.53
2019-01-24T05:31:30.153Z,0.51
2019-01-24T05:33:56.144Z,0.41
2019-01-24T05:36:22.051Z,0.43
2019-01-24T05:38:47.925Z,0.49
2019-01-24T05:41:13.937Z,0.55
2019-01-24T05:43:39.818Z,0.61
2019-01-24T05:46:05.713Z,0.47
2019-01-24T05:48:31.587Z,0.50
2019-01-24T05:50:57.500Z,0.53
2019-01-24T05:53:23.491Z,0.71
2019-01-24T05:55:49.399Z,0.71
2019-01-24T05:58:15.270Z,0.71
2019-01-24T06:00:41.776Z,0.75
2019-01-24T06:03:07.780Z,0.79
2019-01-24T06:05:33.754Z,0.83
2019-01-24T06:07:59.665Z,0.80
2019-01-24T06:10:25.525Z,0.84
2019-01-24T06:12:51.425Z,0.80
2019-01-24T06:15:17.290Z,0.88
2019-01-24T06:17:43.235Z,0.84
2019-01-24T06:20:09.105Z,0.87
2019-01-24T06:22:34.982Z,0.82
2019-01-24T06:25:00.927Z,0.75
2019-01-24T06:27:26.800Z,0.77
2019-01-24T06:29:52.698Z,0.73
2019-01-24T06:32:18.605Z,0.74
2019-01-24T06:34:44.489Z,0.76
2019-01-24T06:37:10.356Z,0.61
2019-01-24T06:39:36.268Z,0.64
2019-01-24T06:42:02.383Z,0.58
2019-01-24T06:44:28.307Z,0.58
2019-01-24T06:46:54.195Z,0.66
2019-01-24T06:49:20.108Z,0.70
2019-01-24T06:51:46.168Z,0.54
2019-01-24T06:54:12.042Z,0.71
2019-01-24T06:56:37.920Z,1.22
2019-01-24T06:59:03.798Z,0.99
2019-01-24T07:01:29.689Z,1.20
2019-01-24T07:03:55.837Z,1.22
2019-01-24T07:06:42.509Z,0.87
2019-01-24T07:09:08.430Z,0.93
2019-01-24T07:11:34.285Z,0.95
2019-01-24T07:14:00.173Z,0.97
2019-01-24T07:16:26.117Z,0.95
2019-01-24T07:18:52.080Z,0.84
2019-01-24T07:21:17.972Z,1.09
2019-01-24T07:23:43.932Z,1.24
2019-01-24T07:26:09.794Z,1.24
2019-01-24T07:28:35.663Z,1.31
2019-01-24T07:31:01.660Z,1.36
2019-01-24T07:33:27.575Z,1.41
2019-01-24T07:35:53.395Z,1.58
2019-01-24T07:38:19.309Z,1.73
2019-01-24T07:40:45.174Z,1.77
2019-01-24T07:43:11.062Z,1.86
2019-01-24T07:45:38.520Z,1.83
2019-01-24T07:48:04.781Z,1.99
2019-01-24T07:50:30.637Z,1.99
2019-01-24T07:52:56.527Z,2.02
2019-01-24T07:55:22.433Z,2.24
2019-01-24T07:57:48.317Z,2.20
2019-01-24T08:00:17.533Z,2.17
2019-01-24T08:02:43.475Z,2.24
2019-01-24T08:05:11.294Z,2.24
2019-01-24T08:07:37.180Z,2.28
2019-01-24T08:10:06.906Z,2.28
2019-01-24T08:12:32.773Z,2.23
2019-01-24T08:14:58.650Z,2.21
2019-01-24T08:17:24.594Z,2.25
2019-01-24T08:19:50.475Z,2.21
2019-01-24T08:22:16.366Z,2.14
2019-01-24T08:24:42.458Z,2.20
2019-01-24T08:27:08.343Z,2.17
2019-01-24T08:29:34.226Z,2.17
2019-01-24T08:32:00.109Z,2.22
2019-01-24T08:34:26.002Z,2.25
2019-01-24T08:36:51.876Z,2.37
2019-01-24T08:39:17.779Z,2.33
2019-01-24T08:41:43.930Z,2.39
2019-01-24T08:44:09.859Z,2.37
2019-01-24T08:46:35.729Z,2.37
2019-01-24T08:49:01.596Z,2.49
2019-01-24T08:51:27.484Z,2.44
2019-01-24T08:53:53.482Z,2.58
2019-01-24T08:56:19.443Z,2.61
2019-01-24T08:58:45.417Z,2.61
2019-01-24T09:01:11.284Z,2.70
2019-01-24T09:03:37.191Z,2.68
2019-01-24T09:06:06.929Z,2.73
2019-01-24T09:08:32.902Z,2.85
2019-01-24T09:10:58.777Z,2.97
2019-01-24T09:13:24.651Z,3.02
2019-01-24T09:15:50.578Z,3.11
2019-01-24T09:18:16.432Z,3.05
2019-01-24T09:20:42.287Z,3.25
2019-01-24T09:23:08.181Z,3.22
2019-01-24T09:25:34.089Z,3.38
2019-01-24T09:28:00.039Z,3.38
2019-01-24T09:30:27.525Z,3.42
2019-01-24T09:32:53.428Z,3.63
2019-01-24T09:35:21.196Z,3.63
2019-01-24T09:37:47.117Z,3.81
2019-01-24T09:40:17.904Z,3.99
2019-01-24T09:42:44.815Z,4.24
2019-01-24T09:45:13.510Z,4.15
2019-01-24T09:47:39.438Z,4.08
2019-01-24T09:50:08.806Z,4.25
2019-01-24T09:52:34.709Z,4.35
2019-01-24T09:55:01.461Z,4.32
2019-01-24T09:57:27.352Z,4.63
2019-01-24T09:59:53.240Z,4.58
2019-01-24T10:02:19.126Z,4.28
2019-01-24T10:04:45.074Z,4.51
2019-01-24T10:07:10.950Z,4.22
2019-01-24T10:09:36.815Z,4.38
2019-01-24T10:12:04.135Z,4.39
2019-01-24T10:14:30.121Z,4.65
2019-01-24T10:16:55.987Z,4.68
2019-01-24T10:19:21.887Z,4.72
2019-01-24T10:21:47.760Z,4.80
2019-01-24T10:24:13.603Z,4.87
2019-01-24T10:26:39.487Z,4.71
2019-01-24T10:29:05.372Z,4.86
2019-01-24T10:31:31.337Z,4.86
2019-01-24T10:33:57.203Z,4.87
2019-01-24T10:36:23.099Z,4.95
2019-01-24T10:38:49.052Z,4.91
2019-01-24T10:41:14.908Z,4.96
2019-01-24T10:43:40.784Z,4.98
2019-01-24T10:46:06.684Z,5.15
2019-01-24T10:48:32.615Z,5.00
2019-01-24T10:50:58.491Z,4.86
2019-01-24T10:53:24.353Z,4.85
2019-01-24T10:55:50.344Z,4.98
2019-01-24T10:58:16.210Z,5.04
2019-01-24T11:00:42.102Z,5.19
2019-01-24T11:03:09.636Z,5.41
2019-01-24T11:05:35.482Z,5.16
2019-01-24T11:08:01.408Z,5.43
2019-01-24T11:10:27.320Z,5.58
2019-01-24T11:12:53.195Z,5.58
2019-01-24T11:15:23.185Z,5.83
2019-01-24T11:17:49.119Z,5.61
2019-01-24T11:20:16.895Z,5.34
2019-01-24T11:22:42.776Z,5.69
2019-01-24T11:25:15.456Z,5.78
2019-01-24T11:27:41.503Z,5.75
2019-01-24T11:30:11.062Z,5.63
2019-01-24T11:32:36.962Z,5.76
2019-01-24T11:35:06.265Z,6.01
2019-01-24T11:37:32.141Z,6.08
2019-01-24T11:39:58.108Z,6.08
2019-01-24T11:42:23.970Z,6.09
2019-01-24T11:44:49.838Z,6.18
2019-01-24T11:47:15.750Z,6.27
2019-01-24T11:49:41.620Z,6.17
2019-01-24T11:52:07.521Z,5.98
2019-01-24T11:54:33.437Z,6.03
2019-01-24T11:56:59.303Z,6.46
2019-01-24T11:59:25.214Z,6.64
2019-01-24T12:01:51.139Z,6.26
2019-01-24T12:04:17.000Z,6.31
2019-01-24T12:06:42.868Z,6.32
2019-01-24T12:09:08.897Z,6.35
2019-01-24T12:11:34.805Z,6.27
2019-01-24T12:14:00.682Z,6.63
2019-01-24T12:16:26.545Z,6.69
2019-01-24T12:18:52.483Z,6.15
2019-01-24T12:21:18.341Z,6.48
2019-01-24T12:23:44.188Z,6.95
2019-01-24T12:26:10.099Z,6.84
2019-01-24T12:28:35.998Z,6.74
2019-01-24T12:31:02.011Z,6.80
2019-01-24T12:33:27.884Z,7.01
2019-01-24T12:35:53.785Z,6.94
2019-01-24T12:38:19.667Z,7.09
2019-01-24T12:40:45.569Z,6.97
2019-01-24T12:43:11.450Z,7.43
2019-01-24T12:45:37.364Z,7.35
2019-01-24T12:48:03.858Z,6.87
2019-01-24T12:50:29.753Z,6.99
2019-01-24T12:52:55.642Z,7.31
2019-01-24T12:55:21.539Z,8.08
2019-01-24T12:57:47.416Z,7.63
2019-01-24T13:00:19.132Z,7.59
2019-01-24T13:02:45.040Z,9.09
2019-01-24T13:05:10.936Z,9.64
2019-01-24T13:07:36.798Z,12.04
2019-01-24T13:10:05.792Z,13.31
2019-01-24T13:12:31.664Z,9.47
2019-01-24T13:14:57.637Z,12.12
2019-01-24T13:17:23.543Z,13.10
2019-01-24T13:19:49.435Z,14.34
2019-01-24T13:22:15.343Z,13.23
2019-01-24T13:24:41.205Z,11.00
2019-01-24T13:27:07.142Z,12.10
2019-01-24T13:29:33.012Z,13.24
2019-01-24T13:31:58.889Z,16.04
2019-01-24T13:34:26.663Z,13.62
2019-01-24T13:36:52.645Z,10.91
2019-01-24T13:39:18.519Z,8.02
2019-01-24T13:41:44.390Z,7.23
2019-01-24T13:44:10.325Z,6.98
2019-01-24T13:46:36.185Z,7.46
2019-01-24T13:49:02.059Z,6.92
2019-01-24T13:51:27.912Z,7.00
2019-01-24T13:53:53.839Z,6.80
2019-01-24T13:56:19.720Z,7.04
2019-01-24T13:58:45.584Z,7.38
2019-01-24T14:01:11.468Z,7.87
2019-01-24T14:03:42.265Z,7.46
2019-01-24T14:06:06.230Z,7.38
2019-01-24T14:08:32.086Z,7.76
2019-01-24T14:10:58.160Z,7.76
2019-01-24T14:13:23.984Z,7.66
2019-01-24T14:15:49.881Z,7.14
2019-01-24T14:18:15.836Z,7.18
2019-01-24T14:20:41.666Z,6.64
2019-01-24T14:23:07.513Z,6.87
2019-01-24T14:25:33.494Z,6.90
2019-01-24T14:27:59.355Z,6.78
2019-01-24T14:30:26.631Z,6.92
2019-01-24T14:32:52.587Z,6.91
2019-01-24T14:35:18.768Z,6.95
2019-01-24T14:37:44.737Z,6.90
2019-01-24T14:40:13.853Z,6.95
2019-01-24T14:42:39.796Z,6.69
2019-01-24T14:45:09.465Z,6.77
2019-01-24T14:47:35.379Z,6.93
2019-01-24T14:50:01.244Z,6.95
2019-01-24T14:52:27.184Z,7.02
2019-01-24T14:54:53.045Z,7.12
2019-01-24T14:57:18.891Z,6.89
2019-01-24T14:59:44.838Z,6.74
2019-01-24T15:02:10.711Z,6.70
2019-01-24T15:04:36.574Z,6.87
2019-01-24T15:07:02.509Z,6.81
2019-01-24T15:09:28.368Z,6.68
2019-01-24T15:11:57.661Z,6.49
2019-01-24T15:14:23.580Z,6.54
2019-01-24T15:16:49.470Z,6.40
2019-01-24T15:19:15.303Z,6.37
2019-01-24T15:21:41.189Z,6.28
2019-01-24T15:24:07.478Z,6.27
2019-01-24T15:26:33.346Z,6.17
2019-01-24T15:28:59.207Z,6.16
2019-01-24T15:31:25.120Z,6.10
2019-01-24T15:33:50.976Z,6.12
2019-01-24T15:36:16.827Z,6.06
2019-01-24T15:38:42.807Z,5.98
2019-01-24T15:41:08.666Z,5.85
2019-01-24T15:43:34.564Z,5.84
2019-01-24T15:46:00.522Z,5.80
2019-01-24T15:48:26.398Z,5.73
2019-01-24T15:50:52.272Z,5.73
2019-01-24T15:53:18.179Z,5.71
2019-01-24T15:55:44.081Z,5.60
2019-01-24T15:58:09.943Z,5.61
2019-01-24T16:00:35.808Z,5.56
2019-01-24T16:03:01.674Z,5.54
2019-01-24T16:05:27.682Z,5.51
2019-01-24T16:07:53.592Z,5.39
2019-01-24T16:10:21.145Z,5.25
2019-01-24T16:12:47.072Z,5.31
2019-01-24T16:15:19.991Z,5.39
2019-01-24T16:17:45.872Z,5.10
2019-01-24T16:20:16.608Z,5.17
2019-01-24T16:22:42.519Z,5.17
2019-01-24T16:25:11.382Z,5.00
2019-01-24T16:27:37.342Z,4.89
2019-01-24T16:30:07.088Z,4.89
2019-01-24T16:32:33.001Z,4.84
2019-01-24T16:34:59.238Z,5.00
2019-01-24T16:37:25.208Z,4.91
2019-01-24T16:39:52.324Z,4.82
2019-01-24T16:42:18.172Z,4.66
2019-01-24T16:44:44.111Z,4.71
2019-01-24T16:47:09.990Z,4.51
2019-01-24T16:49:35.874Z,4.55
2019-01-24T16:52:01.872Z,4.46
2019-01-24T16:54:27.737Z,4.52
2019-01-24T16:56:53.611Z,4.39
2019-01-24T16:59:19.553Z,4.23
2019-01-24T17:01:45.409Z,4.05
2019-01-24T17:04:13.179Z,4.07
2019-01-24T17:06:39.121Z,4.14
2019-01-24T17:09:06.982Z,4.14
2019-01-24T17:11:32.869Z,4.12
2019-01-24T17:13:58.840Z,4.08
2019-01-24T17:16:24.738Z,4.09
2019-01-24T17:18:50.628Z,4.03
2019-01-24T17:21:16.673Z,3.85
2019-01-24T17:23:42.539Z,3.44
2019-01-24T17:26:08.396Z,3.44
2019-01-24T17:28:34.440Z,3.25
2019-01-24T17:31:00.303Z,3.06
2019-01-24T17:33:26.183Z,2.98
2019-01-24T17:35:52.139Z,2.95
2019-01-24T17:38:23.645Z,2.88
2019-01-24T17:40:45.963Z,3.01
2019-01-24T17:43:11.957Z,2.98
2019-01-24T17:45:37.814Z,2.98
2019-01-24T17:48:04.385Z,2.92
2019-01-24T17:50:30.338Z,2.89
2019-01-24T17:52:56.228Z,2.84
2019-01-24T17:55:28.701Z,2.82
2019-01-24T17:57:54.604Z,2.82
2019-01-24T18:00:21.797Z,2.88
2019-01-24T18:02:47.687Z,2.78
2019-01-24T18:05:13.659Z,2.67
2019-01-24T18:07:39.569Z,2.59
2019-01-24T18:10:14.077Z,2.72
2019-01-24T18:12:37.096Z,2.72
2019-01-24T18:15:06.666Z,2.69
2019-01-24T18:17:36.685Z,2.70
2019-01-24T18:20:18.590Z,2.68
2019-01-24T18:22:44.410Z,2.57
2019-01-24T18:25:10.412Z,2.39
2019-01-24T18:27:36.454Z,2.32
2019-01-24T18:30:05.107Z,2.29
2019-01-24T18:32:30.945Z,2.34
2019-01-24T18:34:56.809Z,2.45
2019-01-24T18:37:22.714Z,2.45
2019-01-24T18:39:48.571Z,2.44
2019-01-24T18:42:14.453Z,2.46
2019-01-24T18:44:40.369Z,2.37
2019-01-24T18:47:06.249Z,2.31
2019-01-24T18:49:32.143Z,2.31
2019-01-24T18:51:58.004Z,2.31
2019-01-24T18:54:23.892Z,2.34
2019-01-24T18:56:49.781Z,2.30
2019-01-24T18:59:15.628Z,2.33
2019-01-24T19:01:41.538Z,2.39
2019-01-24T19:04:07.410Z,2.29
2019-01-24T19:06:33.406Z,2.28
2019-01-24T19:08:59.285Z,2.28
2019-01-24T19:11:25.158Z,2.20
2019-01-24T19:13:51.021Z,2.13
2019-01-24T19:16:16.908Z,2.16
2019-01-24T19:18:42.902Z,2.05
2019-01-24T19:21:08.769Z,2.02
2019-01-24T19:23:34.654Z,2.18
2019-01-24T19:26:02.589Z,2.11
2019-01-24T19:28:28.451Z,2.08
2019-01-24T19:30:54.351Z,1.96
2019-01-24T19:33:20.253Z,1.98
2019-01-24T19:35:46.155Z,1.94
2019-01-24T19:38:12.006Z,1.93
2019-01-24T19:40:37.874Z,1.97
2019-01-24T19:43:03.798Z,2.09
2019-01-24T19:45:34.755Z,2.06
2019-01-24T19:48:00.619Z,2.12
2019-01-24T19:50:27.629Z,2.00
2019-01-24T19:52:53.702Z,2.04
2019-01-24T19:55:19.582Z,2.14
2019-01-24T19:57:45.488Z,2.10
2019-01-24T20:00:17.020Z,2.04
2019-01-24T20:02:42.914Z,2.09
2019-01-24T20:05:14.161Z,2.21
2019-01-24T20:07:40.037Z,2.15
2019-01-24T20:10:09.416Z,2.10
2019-01-24T20:12:35.300Z,2.07
2019-01-24T20:15:01.195Z,1.99
2019-01-24T20:17:27.139Z,1.96
2019-01-24T20:19:54.053Z,1.94
2019-01-24T20:22:19.915Z,1.83
2019-01-24T20:24:45.791Z,1.63
2019-01-24T20:27:11.668Z,1.55
2019-01-24T20:29:37.545Z,1.48
2019-01-24T20:32:03.408Z,1.45
2019-01-24T20:34:29.346Z,1.42
2019-01-24T20:36:55.225Z,1.52
2019-01-24T20:39:21.189Z,1.52
2019-01-24T20:41:47.042Z,1.58
2019-01-24T20:44:12.928Z,1.73
2019-01-24T20:46:38.817Z,1.60
2019-01-24T20:49:04.678Z,1.57
2019-01-24T20:51:30.820Z,1.55
2019-01-24T20:53:56.723Z,1.55
2019-01-24T20:56:22.624Z,1.53
2019-01-24T20:58:48.576Z,1.47
2019-01-24T21:01:14.543Z,1.58
2019-01-24T21:03:40.417Z,1.52
2019-01-24T21:06:06.310Z,1.52
2019-01-24T21:08:32.272Z,1.54
2019-01-24T21:10:58.157Z,1.60
2019-01-24T21:13:24.178Z,1.58
2019-01-24T21:15:50.110Z,1.46
2019-01-24T21:18:16.025Z,1.59
2019-01-24T21:20:45.949Z,1.62
2019-01-24T21:23:11.961Z,1.61
2019-01-24T21:25:37.855Z,1.58
2019-01-24T21:28:03.777Z,1.61
2019-01-24T21:30:34.527Z,1.58
2019-01-24T21:33:00.806Z,1.66
2019-01-24T21:35:26.700Z,1.63
2019-01-24T21:37:52.562Z,1.56
2019-01-24T21:40:20.123Z,1.55
2019-01-24T21:42:46.005Z,1.48
2019-01-24T21:45:14.920Z,1.45
2019-01-24T21:47:40.900Z,1.43
2019-01-24T21:50:13.041Z,1.42
2019-01-24T21:52:38.941Z,1.33
2019-01-24T21:55:06.177Z,1.38
2019-01-24T21:57:32.053Z,1.33
2019-01-24T21:59:58.110Z,1.33
2019-01-24T22:02:23.969Z,1.33
2019-01-24T22:04:49.858Z,1.32
2019-01-24T22:07:15.747Z,1.30
2019-01-24T22:09:41.802Z,1.23
2019-01-24T22:12:07.646Z,1.19
2019-01-24T22:14:33.583Z,1.20
2019-01-24T22:17:00.607Z,1.26
2019-01-24T22:19:26.726Z,1.18
2019-01-24T22:21:52.667Z,1.12
2019-01-24T22:24:18.540Z,1.13
2019-01-24T22:26:44.477Z,1.07
2019-01-24T22:29:10.346Z,1.09
2019-01-24T22:31:36.204Z,1.10
2019-01-24T22:34:02.161Z,1.15
2019-01-24T22:36:31.116Z,1.08
2019-01-24T22:38:56.995Z,0.99
2019-01-24T22:41:22.938Z,1.03
2019-01-24T22:43:48.812Z,0.96
2019-01-24T22:46:14.691Z,0.90
2019-01-24T22:48:40.675Z,0.87
2019-01-24T22:51:06.496Z,0.83
2019-01-24T22:53:32.358Z,0.90
2019-01-24T22:55:58.350Z,0.86
2019-01-24T22:58:24.234Z,0.80
2019-01-24T23:00:57.388Z,0.85
2019-01-24T23:03:29.884Z,0.81
2019-01-24T23:05:57.666Z,0.80
2019-01-24T23:08:23.530Z,0.83
2019-01-24T23:10:49.588Z,0.82
2019-01-24T23:13:15.456Z,0.82
2019-01-24T23:15:41.390Z,0.83
2019-01-24T23:18:07.345Z,0.84
2019-01-24T23:20:33.197Z,0.77
2019-01-24T23:22:59.258Z,0.70
2019-01-24T23:25:25.171Z,0.76
2019-01-24T23:27:51.144Z,0.81
2019-01-24T23:30:17.060Z,0.74
2019-01-24T23:32:42.988Z,0.75
2019-01-24T23:35:08.964Z,0.67
2019-01-24T23:37:34.969Z,0.61
2019-01-24T23:40:00.866Z,0.57
2019-01-24T23:42:26.759Z,0.49
2019-01-24T23:44:52.947Z,0.51
2019-01-24T23:47:18.819Z,0.53
2019-01-24T23:49:44.701Z,0.48
2019-01-24T23:52:10.929Z,0.56
2019-01-24T23:54:36.961Z,0.57
2019-01-24T23:57:02.962Z,0.55
2019-01-24T23:59:28.823Z,0.54
